Time;durP1;ratioP1;P1;durP2;ratioP2;P2;SDS_P1;SDS_P2;PMS_P1;PMS_P2;Temp;Humidity;BMP_temperature;BMP_pressure;BME280_temperature;BME280_humidity;BME280_pressure;Samples;Min_cycle;Max_cycle;Signal;HPM_P1;HPM_P2
2022/03/05 00:00:53;;;;;;;9.45;4.20;;;-3275.80;89.80;;;;;;5064552;28;20033;-80
2022/03/05 00:03:19;;;;;;;10.70;4.13;;;-3275.70;89.80;;;;;;5061187;28;20112;-81
2022/03/05 00:05:46;;;;;;;7.05;3.85;;;-3275.70;89.80;;;;;;5057573;28;20451;-81
2022/03/05 00:08:11;;;;;;;8.43;3.83;;;-3275.60;89.80;;;;;;5064860;28;20062;-81
2022/03/05 00:10:37;;;;;;;7.75;4.38;;;-3275.60;89.90;;;;;;5065222;28;20033;-80
2022/03/05 00:13:03;;;;;;;7.18;3.38;;;-3275.50;89.90;;;;;;5060033;28;20028;-80
2022/03/05 00:15:29;;;;;;;9.90;4.78;;;-3275.50;90.10;;;;;;5060652;28;20135;-80
2022/03/05 00:17:55;;;;;;;9.38;3.95;;;-3275.50;90.00;;;;;;5062846;28;20025;-80
2022/03/05 00:20:22;;;;;;;8.32;4.20;;;-3275.50;90.00;;;;;;5060679;28;20033;-80
2022/03/05 00:22:49;;;;;;;11.45;4.40;;;-3275.50;90.10;;;;;;5061071;28;20446;-80
2022/03/05 00:25:15;;;;;;;8.00;3.90;;;-3275.50;90.10;;;;;;5069115;28;20028;-80
2022/03/05 00:27:41;;;;;;;10.70;4.13;;;-3275.40;90.00;;;;;;5057936;28;20029;-80
2022/03/05 00:30:07;;;;;;;9.25;3.97;;;-3275.40;90.00;;;;;;5067124;28;20024;-80
2022/03/05 00:32:33;;;;;;;10.32;3.85;;;-3275.40;90.10;;;;;;5067867;28;20111;-80
2022/03/05 00:34:58;;;;;;;14.55;5.03;;;-3275.40;90.10;;;;;;5069115;28;20127;-80
2022/03/05 00:37:24;;;;;;;10.35;4.20;;;-3275.30;89.90;;;;;;5069355;28;20039;-80
2022/03/05 00:39:50;;;;;;;9.75;4.45;;;-3275.30;90.00;;;;;;5069935;28;20032;-80
2022/03/05 00:42:15;;;;;;;9.80;3.97;;;-3275.30;90.10;;;;;;5066321;28;20136;-80
2022/03/05 00:44:41;;;;;;;9.68;4.20;;;-3275.30;89.90;;;;;;5069337;28;20034;-80
2022/03/05 00:47:07;;;;;;;9.27;4.18;;;-3275.30;90.00;;;;;;5071195;28;20391;-80
2022/03/05 00:49:34;;;;;;;10.88;4.90;;;-3275.20;89.90;;;;;;5062591;28;20036;-80
2022/03/05 00:51:59;;;;;;;9.18;4.78;;;-3275.30;90.00;;;;;;5059995;28;20025;-80
2022/03/05 00:54:25;;;;;;;10.23;4.45;;;-3275.30;89.90;;;;;;5064330;28;20411;-80
2022/03/05 00:56:51;;;;;;;8.30;4.18;;;-3275.30;90.00;;;;;;5061777;28;20036;-80
2022/03/05 00:59:16;;;;;;;10.52;4.25;;;-3275.30;89.90;;;;;;5066257;28;20459;-80
2022/03/05 01:01:42;;;;;;;9.45;3.97;;;-3275.20;89.80;;;;;;5073322;28;20383;-79
2022/03/05 01:04:08;;;;;;;9.63;3.80;;;-3275.20;89.80;;;;;;5070886;28;20028;-80
2022/03/05 01:06:34;;;;;;;9.70;4.40;;;-3275.20;89.90;;;;;;5069893;28;20085;-80
2022/03/05 01:09:01;;;;;;;8.02;4.15;;;-3275.20;89.90;;;;;;5069896;28;20035;-80
2022/03/05 01:11:27;;;;;;;10.50;4.25;;;-3275.20;89.90;;;;;;5069937;28;20029;-80
2022/03/05 01:13:53;;;;;;;10.45;4.30;;;-3275.10;89.80;;;;;;5070322;28;20044;-79
2022/03/05 01:16:19;;;;;;;9.73;3.70;;;-3275.10;89.90;;;;;;5071701;28;20074;-79
2022/03/05 01:18:45;;;;;;;8.63;3.42;;;-3275.10;89.90;;;;;;5070488;28;20461;-79
2022/03/05 01:21:10;;;;;;;9.38;4.00;;;-3275.10;89.90;;;;;;5058580;28;20123;-79
2022/03/05 01:23:36;;;;;;;7.93;3.72;;;-3275.00;89.90;;;;;;5065069;28;20021;-79
2022/03/05 01:26:02;;;;;;;7.32;4.10;;;-3275.10;89.90;;;;;;5062993;28;20476;-80
2022/03/05 01:28:28;;;;;;;8.77;3.60;;;-3275.10;89.90;;;;;;5058800;28;20036;-80
2022/03/05 01:30:53;;;;;;;9.43;4.15;;;-3275.00;89.80;;;;;;5059261;28;20032;-80
2022/03/05 01:33:19;;;;;;;11.25;4.30;;;-3275.00;89.90;;;;;;5059694;28;20052;-80
2022/03/05 01:35:45;;;;;;;9.00;3.60;;;-3275.00;89.90;;;;;;5069927;28;20044;-79
2022/03/05 01:38:11;;;;;;;8.85;4.05;;;-3275.00;89.90;;;;;;5070223;28;20033;-79
2022/03/05 01:40:39;;;;;;;6.95;3.45;;;-3274.90;89.80;;;;;;5058443;28;20032;-79
2022/03/05 01:43:05;;;;;;;12.52;4.07;;;-3274.90;89.90;;;;;;5067965;28;20032;-79
2022/03/05 01:45:31;;;;;;;7.85;3.58;;;-3274.80;89.70;;;;;;5070769;28;20074;-79
2022/03/05 01:47:57;;;;;;;10.68;4.10;;;-3274.80;89.80;;;;;;5069988;28;20025;-80
2022/03/05 01:50:23;;;;;;;10.80;3.88;;;-3274.80;89.90;;;;;;5062047;28;20519;-79
2022/03/05 01:52:49;;;;;;;8.38;3.42;;;-3274.80;89.90;;;;;;5068911;28;20174;-79
2022/03/05 01:55:15;;;;;;;7.38;3.42;;;-3274.90;89.90;;;;;;5061228;28;20444;-79
2022/03/05 01:57:40;;;;;;;11.52;3.75;;;-3275.00;89.90;;;;;;5055046;28;20463;-79
2022/03/05 02:00:08;;;;;;;6.57;3.35;;;-3275.00;89.80;;;;;;5069233;28;20024;-80
2022/03/05 02:02:33;;;;;;;9.30;3.53;;;-3275.00;89.80;;;;;;5070153;28;20070;-80
2022/03/05 02:04:59;;;;;;;8.57;3.90;;;-3275.00;89.70;;;;;;5066802;28;20067;-80
2022/03/05 02:07:24;;;;;;;9.38;3.40;;;-3275.00;89.50;;;;;;5064620;28;20069;-79
2022/03/05 02:09:51;;;;;;;7.70;3.80;;;-3274.90;89.40;;;;;;5072010;28;20518;-79
2022/03/05 02:12:17;;;;;;;8.32;3.50;;;-3274.90;89.50;;;;;;5068574;28;20036;-80
2022/03/05 02:14:42;;;;;;;12.13;3.70;;;-3274.90;89.50;;;;;;5065107;28;20035;-79
2022/03/05 02:17:08;;;;;;;5.50;3.25;;;-3274.80;89.40;;;;;;5071444;28;20070;-80
2022/03/05 02:19:34;;;;;;;6.28;3.10;;;-3274.80;89.50;;;;;;5070761;28;20029;-80
2022/03/05 02:22:00;;;;;;;5.82;2.92;;;-3274.80;89.40;;;;;;5067627;28;20043;-80
2022/03/05 02:24:31;;;;;;;8.38;3.40;;;-3274.80;89.50;;;;;;5069139;28;20030;-79
2022/03/05 02:27:01;;;;;;;6.75;3.10;;;-3274.70;89.40;;;;;;5067754;28;20028;-79
2022/03/05 02:29:26;;;;;;;8.75;3.28;;;-3274.80;89.50;;;;;;5067414;28;20025;-79
2022/03/05 02:31:53;;;;;;;13.70;3.45;;;-3274.70;89.60;;;;;;5058906;28;20395;-79
2022/03/05 02:34:19;;;;;;;6.68;3.45;;;-3274.80;89.70;;;;;;5070563;28;20051;-79
2022/03/05 02:36:45;;;;;;;8.55;3.30;;;-3274.80;89.60;;;;;;5070179;28;20082;-79
2022/03/05 02:39:10;;;;;;;8.15;3.60;;;-3274.70;89.70;;;;;;5069767;28;20036;-79
2022/03/05 02:41:36;;;;;;;7.50;3.38;;;-3274.70;89.60;;;;;;5068702;28;20036;-79
2022/03/05 02:44:02;;;;;;;8.95;3.22;;;-3274.70;89.70;;;;;;5064329;28;20079;-79
2022/03/05 02:46:29;;;;;;;6.25;3.28;;;-3274.60;89.70;;;;;;5050561;28;20476;-79
2022/03/05 02:48:55;;;;;;;9.68;3.85;;;-3274.60;89.80;;;;;;5052760;28;20021;-80
2022/03/05 02:51:21;;;;;;;9.52;3.38;;;-3274.60;89.90;;;;;;5068497;28;20313;-79
2022/03/05 02:53:47;;;;;;;9.05;3.75;;;-3274.60;89.80;;;;;;5067804;28;20396;-79
2022/03/05 02:56:12;;;;;;;9.73;3.28;;;-3274.50;89.80;;;;;;5062525;28;20033;-79
2022/03/05 02:58:38;;;;;;;7.68;3.33;;;-3274.50;89.80;;;;;;5055119;28;20536;-79
2022/03/05 03:01:04;;;;;;;10.48;3.70;;;-3274.50;89.90;;;;;;5069251;28;20199;-79
2022/03/05 03:03:30;;;;;;;9.90;3.85;;;-3274.50;89.90;;;;;;5068897;28;20589;-79
2022/03/05 03:05:55;;;;;;;8.23;3.53;;;-3274.50;90.00;;;;;;5064623;28;20036;-79
2022/03/05 03:08:21;;;;;;;10.07;3.72;;;-3274.30;89.90;;;;;;5054593;28;20029;-80
2022/03/05 03:10:47;;;;;;;7.05;3.10;;;-3274.30;90.10;;;;;;5068594;28;20303;-79
2022/03/05 03:13:12;;;;;;;9.57;3.47;;;-3274.30;90.10;;;;;;5058796;28;20403;-79
2022/03/05 03:15:38;;;;;;;7.13;3.28;;;-3274.30;90.20;;;;;;5064952;28;20070;-79
2022/03/05 03:18:03;;;;;;;7.47;3.47;;;-3274.30;90.20;;;;;;5061011;28;20456;-79
2022/03/05 03:20:29;;;;;;;8.23;3.15;;;-3274.30;90.20;;;;;;5066202;28;20044;-79
2022/03/05 03:22:55;;;;;;;6.03;3.03;;;-3274.30;90.30;;;;;;5050981;28;20472;-79
2022/03/05 03:25:21;;;;;;;6.25;2.97;;;-3274.20;90.10;;;;;;5062843;28;20450;-79
2022/03/05 03:27:47;;;;;;;8.38;3.20;;;-3274.20;90.20;;;;;;5063705;28;20127;-79
2022/03/05 03:30:14;;;;;;;8.38;3.30;;;-3274.20;90.20;;;;;;5070842;28;20033;-80
2022/03/05 03:32:40;;;;;;;7.10;3.67;;;-3274.20;90.20;;;;;;5060132;28;20040;-80
2022/03/05 03:35:07;;;;;;;8.73;3.38;;;-3274.30;90.20;;;;;;5070457;28;20484;-80
2022/03/05 03:37:33;;;;;;;8.63;3.47;;;-3274.30;90.20;;;;;;5066587;28;20035;-80
2022/03/05 03:40:01;;;;;;;9.90;3.45;;;-3274.30;90.30;;;;;;5069229;28;20501;-80
2022/03/05 03:42:28;;;;;;;11.20;3.45;;;-3274.30;90.20;;;;;;5062907;28;20029;-80
2022/03/05 03:44:54;;;;;;;8.77;3.05;;;-3274.30;90.20;;;;;;5061075;28;20029;-80
2022/03/05 03:47:20;;;;;;;10.32;3.92;;;-3274.30;90.20;;;;;;5064918;28;20403;-80
2022/03/05 03:49:47;;;;;;;8.68;3.53;;;-3274.30;90.20;;;;;;5065748;28;20412;-79
2022/03/05 03:52:13;;;;;;;8.68;3.53;;;-3274.30;90.20;;;;;;5073470;28;20430;-79
2022/03/05 03:54:39;;;;;;;11.27;3.60;;;-3274.20;90.10;;;;;;5071308;28;20031;-79
2022/03/05 03:57:05;;;;;;;8.38;3.67;;;-3274.20;90.10;;;;;;5055775;28;20024;-79
2022/03/05 03:59:31;;;;;;;7.55;3.10;;;-3274.20;90.20;;;;;;5060749;28;20037;-79
2022/03/05 04:01:56;;;;;;;9.32;3.97;;;-3274.10;90.20;;;;;;5074377;28;20464;-79
2022/03/05 04:04:22;;;;;;;6.85;3.83;;;-3274.20;90.20;;;;;;5073416;28;20063;-79
2022/03/05 04:09:31;;;;;;;5.65;3.20;;;-3274.10;90.40;;;;;;5063864;28;20036;-79
2022/03/05 04:11:57;;;;;;;8.45;3.72;;;-3274.00;90.40;;;;;;5066959;28;20389;-79
2022/03/05 04:14:22;;;;;;;6.70;3.30;;;-3274.00;90.40;;;;;;5070158;28;20043;-79
2022/03/05 04:16:48;;;;;;;8.30;3.38;;;-3274.00;90.50;;;;;;5071669;28;20094;-79
2022/03/05 04:19:13;;;;;;;7.47;3.08;;;-3274.00;90.60;;;;;;5072910;28;20487;-79
2022/03/05 04:21:39;;;;;;;6.45;3.60;;;-3274.00;90.60;;;;;;5069617;28;20033;-79
2022/03/05 04:24:04;;;;;;;9.63;3.83;;;-3274.00;90.70;;;;;;5070716;28;20391;-79
2022/03/05 04:26:30;;;;;;;9.57;3.97;;;-3274.00;90.70;;;;;;5066286;28;20039;-79
2022/03/05 04:28:55;;;;;;;9.57;4.30;;;-3273.90;90.70;;;;;;5053771;28;20451;-79
2022/03/05 04:31:21;;;;;;;11.90;4.15;;;-3273.90;90.80;;;;;;5053534;28;20025;-79
2022/03/05 04:33:46;;;;;;;9.85;4.00;;;-3273.90;90.90;;;;;;5070922;28;20048;-79
2022/03/05 04:36:12;;;;;;;11.27;4.90;;;-3273.90;90.80;;;;;;5071474;28;20023;-79
2022/03/05 04:38:37;;;;;;;7.90;3.55;;;-3273.80;90.80;;;;;;5063748;28;20113;-79
2022/03/05 04:41:03;;;;;;;6.53;3.40;;;-3273.80;90.90;;;;;;5058984;28;20378;-79
2022/03/05 04:43:29;;;;;;;7.53;3.05;;;-3273.80;91.00;;;;;;5070804;28;20146;-79
2022/03/05 04:45:54;;;;;;;10.07;3.65;;;-3273.70;90.90;;;;;;5069794;28;20024;-79
2022/03/05 04:48:20;;;;;;;7.28;3.97;;;-3273.70;91.10;;;;;;5065172;28;20403;-79
2022/03/05 04:50:48;;;;;;;8.88;3.28;;;-3273.70;91.10;;;;;;5072224;28;20037;-79
2022/03/05 04:53:14;;;;;;;10.63;3.63;;;-3273.70;91.30;;;;;;5063641;28;20150;-79
2022/03/05 04:55:40;;;;;;;6.90;3.45;;;-3273.70;91.20;;;;;;5062294;28;20032;-79
2022/03/05 04:58:06;;;;;;;7.65;3.50;;;-3273.80;91.20;;;;;;5061347;28;20460;-79
2022/03/05 05:00:31;;;;;;;7.57;3.63;;;-3273.80;91.30;;;;;;5056465;28;20484;-79
2022/03/05 05:02:57;;;;;;;9.95;4.40;;;-3273.70;91.20;;;;;;5070973;28;20017;-79
2022/03/05 05:05:22;;;;;;;8.27;3.65;;;-3273.80;91.30;;;;;;5063081;28;20027;-79
2022/03/05 05:07:48;;;;;;;7.03;3.60;;;-3273.80;91.30;;;;;;5056566;28;20033;-79
2022/03/05 05:10:14;;;;;;;12.40;3.88;;;-3273.80;91.40;;;;;;5058906;28;20101;-79
2022/03/05 05:12:39;;;;;;;10.10;3.63;;;-3273.70;91.40;;;;;;5055671;28;20037;-79
2022/03/05 05:15:05;;;;;;;10.63;4.72;;;-3273.70;91.30;;;;;;5064398;28;20024;-79
2022/03/05 05:17:36;;;;;;;10.23;4.93;;;-3273.60;91.30;;;;;;5066548;28;20029;-79
2022/03/05 05:20:02;;;;;;;10.07;4.75;;;-3273.60;91.30;;;;;;5049741;28;20586;-79
2022/03/05 05:22:29;;;;;;;13.07;5.03;;;-3273.60;91.40;;;;;;5062325;28;20032;-80
2022/03/05 05:24:55;;;;;;;14.15;4.95;;;-3273.50;91.40;;;;;;5059611;28;20353;-80
2022/03/05 05:27:21;;;;;;;10.70;4.20;;;-3273.60;91.40;;;;;;5062560;28;20027;-80
2022/03/05 05:29:46;;;;;;;10.32;3.75;;;-3273.50;91.40;;;;;;5062943;28;20036;-80
2022/03/05 05:32:12;;;;;;;13.38;5.07;;;-3273.50;91.40;;;;;;5069886;28;20039;-80
2022/03/05 05:34:38;;;;;;;11.20;4.32;;;-3273.50;91.50;;;;;;5068155;28;20050;-79
2022/03/05 05:37:03;;;;;;;12.40;5.03;;;-3273.50;91.40;;;;;;5066842;28;20025;-79
2022/03/05 05:39:29;;;;;;;13.82;5.05;;;-3273.40;91.50;;;;;;5060026;28;20037;-79
2022/03/05 05:41:55;;;;;;;10.35;4.93;;;-3273.40;91.50;;;;;;5066504;28;20028;-79
2022/03/05 05:44:21;;;;;;;12.85;5.28;;;-3273.40;91.60;;;;;;5056978;28;20032;-80
2022/03/05 05:46:46;;;;;;;9.07;4.20;;;-3273.40;91.50;;;;;;5059875;28;20016;-80
2022/03/05 05:49:12;;;;;;;11.18;4.50;;;-3273.50;91.70;;;;;;5062557;28;20514;-80
2022/03/05 05:51:38;;;;;;;12.45;4.93;;;-3273.40;91.60;;;;;;5068851;28;20050;-80
2022/03/05 05:54:04;;;;;;;14.45;4.13;;;-3273.40;91.60;;;;;;5066567;28;20032;-80
2022/03/05 05:56:29;;;;;;;11.30;4.47;;;-3273.40;91.60;;;;;;5068492;28;20112;-80
2022/03/05 05:58:56;;;;;;;14.18;4.95;;;-3273.40;91.70;;;;;;5060227;28;20526;-80
2022/03/05 06:01:22;;;;;;;14.45;5.40;;;-3273.40;91.70;;;;;;5068858;28;20043;-80
2022/03/05 06:03:49;;;;;;;17.48;6.00;;;-3273.40;91.70;;;;;;5066946;28;20021;-80
2022/03/05 06:06:16;;;;;;;9.02;4.72;;;-3273.40;91.70;;;;;;5064571;28;20231;-77
2022/03/05 06:08:41;;;;;;;8.43;4.95;;;-3273.40;91.70;;;;;;5064341;28;20032;-78
2022/03/05 06:11:07;;;;;;;13.13;4.90;;;-3273.40;91.80;;;;;;5056802;28;20255;-78
2022/03/05 06:13:32;;;;;;;10.80;4.75;;;-3273.40;91.70;;;;;;5056970;28;20032;-78
2022/03/05 06:15:58;;;;;;;15.95;4.82;;;-3273.40;91.80;;;;;;5059176;28;20104;-77
2022/03/05 06:18:23;;;;;;;10.70;5.40;;;-3273.30;91.80;;;;;;5059089;28;20141;-77
2022/03/05 06:20:50;;;;;;;7.85;4.60;;;-3273.40;91.80;;;;;;5057059;28;20028;-77
2022/03/05 06:23:17;;;;;;;12.75;4.93;;;-3273.30;91.80;;;;;;5059196;28;20017;-77
2022/03/05 06:25:43;;;;;;;12.07;4.88;;;-3273.30;91.80;;;;;;5062571;28;20029;-78
2022/03/05 06:28:08;;;;;;;11.27;4.90;;;-3273.30;91.80;;;;;;5061972;28;20031;-78
2022/03/05 06:30:34;;;;;;;11.15;4.68;;;-3273.40;91.90;;;;;;5053443;28;20029;-77
2022/03/05 06:33:00;;;;;;;10.43;4.80;;;-3273.40;91.90;;;;;;5062974;28;20032;-77
2022/03/05 06:35:25;;;;;;;9.93;4.30;;;-3273.50;91.90;;;;;;5062937;28;20052;-77
2022/03/05 06:37:51;;;;;;;13.82;5.07;;;-3273.60;91.90;;;;;;5060293;28;20086;-78
2022/03/05 06:40:16;;;;;;;9.38;4.10;;;-3273.50;91.90;;;;;;5061107;28;20234;-78
2022/03/05 06:42:44;;;;;;;13.25;4.78;;;-3273.60;91.90;;;;;;5066320;28;20107;-78
2022/03/05 06:45:10;;;;;;;12.02;5.13;;;-3273.60;91.90;;;;;;5060977;28;20021;-77
2022/03/05 06:47:36;;;;;;;13.75;4.70;;;-3273.70;91.90;;;;;;5060015;28;20020;-77
2022/03/05 06:50:02;;;;;;;11.35;5.32;;;-3273.70;91.80;;;;;;5057858;28;20024;-77
2022/03/05 06:52:28;;;;;;;14.88;5.55;;;-3273.70;91.90;;;;;;5058438;28;20025;-78
2022/03/05 06:54:53;;;;;;;11.35;5.28;;;-3273.70;91.80;;;;;;5060740;28;20023;-78
2022/03/05 06:57:19;;;;;;;9.50;5.60;;;-3273.80;91.80;;;;;;5052737;28;20036;-78
2022/03/05 06:59:44;;;;;;;8.18;4.82;;;-3273.80;91.90;;;;;;5062005;28;20080;-78
2022/03/05 07:02:10;;;;;;;11.38;5.55;;;-3273.90;91.90;;;;;;5063972;28;20108;-78
2022/03/05 07:04:35;;;;;;;13.63;6.05;;;-3274.00;91.90;;;;;;5067888;28;20020;-79
2022/03/05 07:07:01;;;;;;;11.90;5.47;;;-3274.10;91.90;;;;;;5062972;28;20025;-79
2022/03/05 07:09:27;;;;;;;10.93;5.80;;;-3274.30;91.90;;;;;;5070374;28;20480;-78
2022/03/05 07:11:52;;;;;;;11.00;5.03;;;-3274.40;92.00;;;;;;5069651;28;20040;-77
2022/03/05 07:14:18;;;;;;;15.20;5.55;;;-3274.60;92.10;;;;;;5070341;28;20037;-77
2022/03/05 07:16:43;;;;;;;10.75;5.47;;;-3274.70;91.90;;;;;;5068250;28;20036;-77
2022/03/05 07:19:10;;;;;;;12.57;5.80;;;-3274.90;91.90;;;;;;5069579;28;20048;-78
2022/03/05 07:21:35;;;;;;;10.05;4.63;;;-3275.00;91.90;;;;;;5067804;28;20039;-78
2022/03/05 07:24:02;;;;;;;8.77;4.85;;;-3275.00;91.60;;;;;;5060287;28;20024;-78
2022/03/05 07:26:27;;;;;;;10.77;4.95;;;-3275.10;91.40;;;;;;5061762;28;20066;-78
2022/03/05 07:28:53;;;;;;;9.75;4.47;;;-3275.10;91.10;;;;;;5057427;28;20546;-78
2022/03/05 07:31:18;;;;;;;10.90;4.55;;;-3275.30;91.10;;;;;;5056587;28;20020;-78
2022/03/05 07:33:44;;;;;;;15.90;4.88;;;-3275.30;90.70;;;;;;5067122;28;20045;-77
2022/03/05 07:36:10;;;;;;;11.93;4.95;;;-3275.50;90.60;;;;;;5041916;28;20115;-78
2022/03/05 07:38:35;;;;;;;9.63;4.18;;;-3275.60;90.30;;;;;;5066575;28;20036;-78
2022/03/05 07:41:02;;;;;;;7.72;4.10;;;-3275.70;89.80;;;;;;5057422;28;20028;-78
2022/03/05 07:43:27;;;;;;;11.00;5.22;;;-3275.90;89.60;;;;;;5062233;28;20112;-78
2022/03/05 07:45:53;;;;;;;11.63;4.25;;;-3276.00;89.40;;;;;;5061810;28;20121;-78
2022/03/05 07:48:21;;;;;;;9.02;4.40;;;-3276.10;89.30;;;;;;5061483;28;20062;-78
2022/03/05 07:50:48;;;;;;;7.78;3.60;;;-3276.20;89.00;;;;;;5061425;28;20130;-78
2022/03/05 07:53:14;;;;;;;13.73;4.30;;;-3276.30;88.50;;;;;;5058068;28;20025;-78
2022/03/05 07:55:39;;;;;;;9.27;4.05;;;-3276.50;88.40;;;;;;5057894;28;20037;-78
2022/03/05 07:58:05;;;;;;;10.07;4.20;;;-3276.60;87.90;;;;;;5056305;28;20476;-78
2022/03/05 08:00:31;;;;;;;10.35;4.38;;;-3276.70;87.30;;;;;;5061157;28;20033;-78
2022/03/05 08:02:57;;;;;;;11.60;4.80;;;0.00;87.20;;;;;;5064000;28;20028;-78
2022/03/05 08:05:22;;;;;;;8.60;3.88;;;0.10;86.90;;;;;;5055767;28;20035;-78
2022/03/05 08:07:48;;;;;;;9.00;4.60;;;0.30;86.50;;;;;;5060786;28;20024;-78
2022/03/05 08:10:14;;;;;;;7.65;4.32;;;0.60;86.70;;;;;;5074081;28;20201;-78
2022/03/05 08:12:40;;;;;;;8.10;4.05;;;0.70;85.40;;;;;;5068779;28;20020;-78
2022/03/05 08:15:06;;;;;;;7.05;3.67;;;0.80;84.80;;;;;;5061138;28;20032;-78
2022/03/05 08:17:32;;;;;;;10.73;4.40;;;1.10;85.00;;;;;;5073231;28;20490;-78
2022/03/05 08:19:58;;;;;;;7.93;4.07;;;1.40;84.60;;;;;;5070712;28;20165;-78
2022/03/05 08:22:24;;;;;;;8.27;4.13;;;1.60;83.70;;;;;;5062033;28;20088;-78
2022/03/05 08:24:50;;;;;;;8.45;3.80;;;1.70;82.70;;;;;;5060557;28;20040;-79
2022/03/05 08:27:15;;;;;;;8.52;3.88;;;2.00;81.30;;;;;;5064280;28;20147;-78
2022/03/05 08:29:42;;;;;;;6.90;4.03;;;1.80;79.50;;;;;;5065630;28;20044;-78
2022/03/05 08:32:08;;;;;;;8.95;4.55;;;2.10;80.30;;;;;;5067589;28;20025;-78
2022/03/05 08:34:34;;;;;;;9.30;4.45;;;2.30;78.00;;;;;;5064563;28;20488;-78
2022/03/05 08:36:59;;;;;;;7.43;3.70;;;2.70;79.10;;;;;;5059419;28;20036;-78
2022/03/05 08:39:25;;;;;;;8.93;4.00;;;2.80;77.00;;;;;;5063517;28;20071;-79
2022/03/05 08:41:51;;;;;;;8.55;3.92;;;2.60;75.70;;;;;;5057206;28;20025;-79
2022/03/05 08:44:16;;;;;;;5.93;3.58;;;3.00;77.40;;;;;;5059308;28;20029;-78
2022/03/05 08:46:42;;;;;;;8.15;4.15;;;2.80;74.70;;;;;;5063113;28;20024;-78
2022/03/05 08:49:07;;;;;;;8.05;3.88;;;3.10;74.50;;;;;;5058251;28;20035;-79
2022/03/05 08:51:33;;;;;;;8.65;3.92;;;3.40;74.40;;;;;;5060003;28;20043;-79
2022/03/05 08:53:58;;;;;;;5.82;3.53;;;3.20;73.10;;;;;;5072282;28;20044;-80
2022/03/05 08:56:24;;;;;;;8.10;3.85;;;3.60;73.00;;;;;;5071762;28;20381;-79
2022/03/05 08:58:50;;;;;;;7.30;3.72;;;3.70;73.40;;;;;;5069495;28;20111;-79
2022/03/05 09:01:15;;;;;;;7.07;3.70;;;3.70;71.90;;;;;;5072320;28;20097;-79
2022/03/05 09:03:42;;;;;;;9.52;3.88;;;3.80;71.80;;;;;;5059212;28;20555;-79
2022/03/05 09:06:08;;;;;;;7.20;3.80;;;3.70;71.50;;;;;;5068246;28;20027;-79
2022/03/05 09:08:35;;;;;;;7.47;3.88;;;3.60;71.70;;;;;;5071750;28;20110;-80
2022/03/05 09:11:00;;;;;;;6.60;3.50;;;3.80;71.10;;;;;;5072344;28;20033;-79
2022/03/05 09:13:26;;;;;;;6.95;3.88;;;4.00;70.80;;;;;;5070148;28;20059;-79
2022/03/05 09:15:51;;;;;;;6.88;3.78;;;3.90;69.90;;;;;;5072756;28;20179;-79
2022/03/05 09:18:17;;;;;;;8.73;3.58;;;3.90;70.60;;;;;;5073081;28;20025;-79
2022/03/05 09:20:46;;;;;;;8.38;3.92;;;4.10;68.20;;;;;;5068023;28;20375;-79
2022/03/05 09:23:12;;;;;;;6.57;3.70;;;4.10;68.40;;;;;;5070799;28;20027;-79
2022/03/05 09:25:37;;;;;;;8.30;3.80;;;4.40;68.40;;;;;;5071479;28;20476;-79
2022/03/05 09:28:03;;;;;;;8.43;3.97;;;4.50;67.40;;;;;;5069593;28;20115;-79
2022/03/05 09:30:28;;;;;;;8.18;4.28;;;4.40;67.70;;;;;;5065971;28;20033;-79
2022/03/05 09:32:54;;;;;;;6.70;3.72;;;4.40;66.10;;;;;;5071415;28;20142;-79
2022/03/05 09:35:19;;;;;;;8.18;4.10;;;4.50;66.10;;;;;;5070226;28;20445;-79
2022/03/05 09:37:45;;;;;;;6.78;3.80;;;5.00;66.00;;;;;;5061492;28;20033;-79
2022/03/05 09:40:12;;;;;;;6.70;3.45;;;5.00;65.20;;;;;;5072502;28;20039;-79
2022/03/05 09:42:42;;;;;;;8.10;3.65;;;5.00;64.90;;;;;;5069975;28;20021;-79
2022/03/05 09:45:09;;;;;;;8.23;3.75;;;5.40;66.10;;;;;;5069993;28;20020;-79
2022/03/05 09:47:38;;;;;;;7.50;3.97;;;5.50;62.90;;;;;;5071981;28;20055;-79
2022/03/05 09:50:06;;;;;;;7.88;3.78;;;5.40;59.60;;;;;;5055820;28;20418;-79
2022/03/05 09:52:32;;;;;;;6.85;4.22;;;5.30;59.40;;;;;;5055419;28;20037;-79
2022/03/05 09:54:58;;;;;;;6.40;3.80;;;5.70;58.60;;;;;;5064090;28;20043;-79
2022/03/05 09:57:24;;;;;;;5.97;3.47;;;6.00;58.40;;;;;;5065700;28;20479;-79
2022/03/05 09:59:49;;;;;;;6.95;3.70;;;5.90;57.00;;;;;;5071130;28;20044;-79
2022/03/05 10:02:15;;;;;;;6.97;3.33;;;5.90;56.40;;;;;;5070628;28;20095;-79
2022/03/05 10:04:41;;;;;;;5.70;3.30;;;6.00;55.90;;;;;;5059842;28;20455;-79
2022/03/05 10:07:13;;;;;;;6.43;3.15;;;6.00;56.80;;;;;;5060942;28;20023;-79
2022/03/05 10:09:40;;;;;;;5.47;3.33;;;5.80;55.10;;;;;;5064194;28;20097;-79
2022/03/05 10:12:25;;;;;;;6.25;3.80;;;5.90;56.00;;;;;;5059828;28;20400;-79
2022/03/05 10:15:17;;;;;;;5.82;3.22;;;6.10;55.90;;;;;;5062408;28;20071;-79
2022/03/05 10:17:51;;;;;;;5.85;3.22;;;6.20;54.80;;;;;;5064212;28;20025;-79
2022/03/05 10:20:17;;;;;;;7.47;3.85;;;6.00;54.90;;;;;;5062767;28;20135;-79
2022/03/05 10:22:57;;;;;;;5.65;3.20;;;6.10;54.90;;;;;;5061851;28;20063;-79
2022/03/05 10:25:30;;;;;;;6.97;3.30;;;6.00;53.70;;;;;;5063959;28;20052;-79
2022/03/05 10:28:16;;;;;;;7.68;3.72;;;6.00;53.70;;;;;;5055248;28;20024;-79
2022/03/05 10:30:48;;;;;;;6.07;3.35;;;5.90;55.00;;;;;;5064613;28;20050;-79
2022/03/05 10:33:38;;;;;;;7.40;3.60;;;6.20;53.80;;;;;;5057917;28;20561;-79
2022/03/05 10:36:18;;;;;;;6.43;3.35;;;6.10;52.70;;;;;;5059812;28;20043;-79
2022/03/05 10:38:54;;;;;;;8.90;3.72;;;6.00;52.70;;;;;;5065637;28;20131;-79
2022/03/05 10:41:36;;;;;;;7.32;4.03;;;6.30;53.50;;;;;;5066031;28;20033;-79
2022/03/05 10:44:08;;;;;;;5.10;3.38;;;6.30;55.20;;;;;;5062730;28;20024;-79
2022/03/05 10:46:46;;;;;;;6.68;3.60;;;5.90;54.30;;;;;;5057465;28;20601;-79
2022/03/05 10:49:23;;;;;;;6.85;3.83;;;5.90;55.40;;;;;;5053727;28;20424;-79
2022/03/05 10:51:53;;;;;;;7.30;3.55;;;6.20;54.40;;;;;;5055024;28;20486;-79
2022/03/05 10:54:27;;;;;;;8.02;4.35;;;5.60;54.30;;;;;;5061379;28;20028;-79
2022/03/05 10:56:55;;;;;;;7.20;3.80;;;6.00;55.70;;;;;;5062721;28;20032;-79
2022/03/05 10:59:22;;;;;;;6.72;3.80;;;5.70;54.40;;;;;;5057070;28;20033;-78
2022/03/05 11:01:48;;;;;;;6.75;3.65;;;6.10;55.50;;;;;;5059385;28;20047;-78
2022/03/05 11:04:14;;;;;;;6.88;3.63;;;6.20;55.20;;;;;;5068406;28;20025;-77
2022/03/05 11:06:42;;;;;;;7.30;3.80;;;6.30;54.50;;;;;;5054593;28;20024;-78
2022/03/05 11:09:10;;;;;;;6.63;3.90;;;6.20;55.10;;;;;;5061581;28;20479;-78
2022/03/05 11:11:40;;;;;;;6.25;3.83;;;5.90;54.10;;;;;;5063612;28;20032;-78
2022/03/05 11:14:10;;;;;;;8.73;4.05;;;6.30;54.10;;;;;;5055854;28;20040;-78
2022/03/05 11:16:36;;;;;;;11.60;4.10;;;6.60;54.10;;;;;;5052888;28;20021;-78
2022/03/05 11:19:02;;;;;;;6.57;4.00;;;6.60;53.50;;;;;;5052089;28;20021;-78
2022/03/05 11:21:29;;;;;;;6.75;3.75;;;6.70;53.10;;;;;;5058183;28;20766;-78
2022/03/05 11:23:59;;;;;;;7.95;3.90;;;6.70;53.50;;;;;;5059392;28;20027;-79
2022/03/05 11:26:27;;;;;;;7.90;4.03;;;6.80;52.00;;;;;;5056764;28;20112;-79
2022/03/05 11:28:52;;;;;;;6.03;3.35;;;7.20;52.70;;;;;;5067582;28;20029;-79
2022/03/05 11:31:28;;;;;;;7.13;3.72;;;7.40;51.90;;;;;;5063615;28;20029;-79
2022/03/05 11:33:54;;;;;;;6.38;3.25;;;7.40;50.00;;;;;;5054341;28;20087;-79
2022/03/05 11:36:31;;;;;;;6.50;3.25;;;7.30;49.20;;;;;;5064551;28;20100;-79
2022/03/05 11:39:06;;;;;;;6.88;3.78;;;7.40;51.20;;;;;;5067155;28;20051;-78
2022/03/05 11:41:32;;;;;;;6.18;3.03;;;7.10;50.70;;;;;;5064786;28;20033;-79
2022/03/05 11:44:12;;;;;;;6.90;3.58;;;7.20;50.70;;;;;;5055523;28;20353;-79
2022/03/05 11:46:37;;;;;;;7.57;3.60;;;7.90;51.90;;;;;;5068654;28;20046;-78
2022/03/05 11:49:05;;;;;;;6.65;3.60;;;8.30;49.30;;;;;;5063213;28;20029;-78
2022/03/05 11:51:32;;;;;;;7.82;4.20;;;8.00;49.70;;;;;;5064470;28;20365;-78
2022/03/05 11:54:05;;;;;;;7.47;3.70;;;8.10;48.70;;;;;;5064800;28;20021;-79
2022/03/05 11:56:31;;;;;;;7.95;4.10;;;8.10;49.10;;;;;;5064918;28;20033;-79
2022/03/05 11:58:56;;;;;;;6.72;3.75;;;8.50;48.40;;;;;;5062390;28;20480;-80
2022/03/05 12:01:36;;;;;;;6.32;3.28;;;8.20;49.00;;;;;;5062987;28;20037;-79
2022/03/05 12:04:23;;;;;;;10.45;3.88;;;8.80;47.00;;;;;;5055335;28;20488;-79
2022/03/05 12:06:53;;;;;;;6.15;3.58;;;8.70;47.20;;;;;;5060791;28;20021;-80
2022/03/05 12:09:44;;;;;;;6.18;3.28;;;8.80;46.50;;;;;;5066086;28;20032;-80
2022/03/05 12:12:16;;;;;;;5.65;3.50;;;8.70;45.60;;;;;;5059073;28;20030;-80
2022/03/05 12:15:01;;;;;;;5.90;3.42;;;8.80;45.80;;;;;;5067085;28;20040;-80
2022/03/05 12:17:33;;;;;;;7.07;3.58;;;9.00;44.60;;;;;;5067804;28;20032;-79
2022/03/05 12:19:59;;;;;;;6.43;3.70;;;9.50;44.40;;;;;;5060214;28;20025;-80
2022/03/05 12:22:24;;;;;;;6.35;3.50;;;9.40;44.70;;;;;;5071847;28;20369;-80
2022/03/05 12:24:50;;;;;;;5.53;3.42;;;9.70;42.90;;;;;;5066485;28;20032;-80
2022/03/05 12:27:17;;;;;;;5.88;3.30;;;10.00;43.90;;;;;;5057752;28;20548;-80
2022/03/05 12:29:50;;;;;;;7.85;3.97;;;9.90;44.10;;;;;;5080646;28;20044;-79